Tobias, NE (68453)

8:46 PM CDT on July 24, 2016 (GMT -0500)
APRSWXNET | | Change Station

Elev 1804 ft 40.52 °N, 97.60 °W | Updated 29 minutes ago

Clear
Clear
80 °F
Feels Like 82 °F
N
1
Wind Variable Wind from NE
Gusts 3.0 mph

Today
High -- | Low -- °F
--% Chance of Precip.
Yesterday
High -- | Low -- °F
Precip. -- in
Pressure 30.03 in
Visibility 10.0 miles
Clouds Clear
Heat Index 82 °F
Dew Point 67 °F
Humidity 64%
Rainfall in
Snow Depth Not available.
6:19 AM 8:51 PM
Waning Gibbous, 71% visible
METAR KHJH 250135Z AUTO 08005KT 10SM CLR 25/17 A3003 RMK AO2 T02510173
Pressure 30.03 in
Visibility 10.0 miles
Clouds Clear
Heat Index 82 °F
Dew Point 67 °F
Humidity 64%
Rainfall in
Snow Depth Not available.
6:19 AM 8:51 PM
Waning Gibbous, 71% visible
METAR KHJH 250135Z AUTO 08005KT 10SM CLR 25/17 A3003 RMK AO2 T02510173

10-Day Weather Forecast

Almanac

Astronomy

Jul. 24, 2016 Rise Set
Actual Time
Civil Twilight
Nautical Twilight
Astronomical Twilight
Moon
Length of Visible Light
Length of Day
Tomorrow will be .
, % of the Moon is Illuminated

Today's Extremes

State Highs State Lows

Community

WunderPhotos

Upload Photos

1,927,233 photos uploaded!

WunderBlog® & News

Nearby

Air Quality

  Air Quality AQ Index Pollutant
Not available.

Snow Depth

Station Depth Elevation

Earthquake Activity

City Distance Mag. Time & Date
Minimum magnitude displayed is 2.5.

Coastal Water Temperatures

Place Temperature

Stations

Nearby Weather Stations

Station Location Temp. Windchill Dew Point Humidity Wind Precip. Elev Updated Type
                   

Watches & Warnings

There are currently no watches in effect.